地図

経路データ

SID SEASON NUMBER BASIN SUBBASIN NAME ISO_TIME NATURE LAT LON WMO_WIND WMO_PRES WMO_AGENCY TRACK_TYPE DIST2LAND LANDFALL IFLAG USA_AGENCY USA_ATCF_ID USA_LAT USA_LON USA_RECORD USA_STATUS USA_WIND USA_PRES USA_SSHS USA_R34_NE USA_R34_SE USA_R34_SW USA_R34_NW USA_R50_NE USA_R50_SE USA_R50_SW USA_R50_NW USA_R64_NE USA_R64_SE USA_R64_SW USA_R64_NW USA_POCI USA_ROCI USA_RMW USA_EYE TOKYO_LAT TOKYO_LON TOKYO_GRADE TOKYO_WIND TOKYO_PRES TOKYO_R50_DIR TOKYO_R50_LONG TOKYO_R50_SHORT TOKYO_R30_DIR TOKYO_R30_LONG TOKYO_R30_SHORT TOKYO_LAND CMA_LAT CMA_LON CMA_CAT CMA_WIND CMA_PRES HKO_LAT HKO_LON HKO_CAT HKO_WIND HKO_PRES NEWDELHI_LAT NEWDELHI_LON NEWDELHI_GRADE NEWDELHI_WIND NEWDELHI_PRES NEWDELHI_CI NEWDELHI_DP NEWDELHI_POCI REUNION_LAT REUNION_LON REUNION_TYPE REUNION_WIND REUNION_PRES REUNION_TNUM REUNION_CI REUNION_RMW REUNION_R34_NE REUNION_R34_SE REUNION_R34_SW REUNION_R34_NW REUNION_R50_NE REUNION_R50_SE REUNION_R50_SW REUNION_R50_NW REUNION_R64_NE REUNION_R64_SE REUNION_R64_SW REUNION_R64_NW BOM_LAT BOM_LON BOM_TYPE BOM_WIND BOM_PRES BOM_TNUM BOM_CI BOM_RMW BOM_R34_NE BOM_R34_SE BOM_R34_SW BOM_R34_NW BOM_R50_NE BOM_R50_SE BOM_R50_SW BOM_R50_NW BOM_R64_NE BOM_R64_SE BOM_R64_SW BOM_R64_NW BOM_ROCI BOM_POCI BOM_EYE BOM_POS_METHOD BOM_PRES_METHOD NADI_LAT NADI_LON NADI_CAT NADI_WIND NADI_PRES WELLINGTON_LAT WELLINGTON_LON WELLINGTON_WIND WELLINGTON_PRES DS824_LAT DS824_LON DS824_STAGE DS824_WIND DS824_PRES TD9636_LAT TD9636_LON TD9636_STAGE TD9636_WIND TD9636_PRES TD9635_LAT TD9635_LON TD9635_WIND TD9635_PRES TD9635_ROCI NEUMANN_LAT NEUMANN_LON NEUMANN_CLASS NEUMANN_WIND NEUMANN_PRES MLC_LAT MLC_LON MLC_CLASS MLC_WIND MLC_PRES USA_GUST BOM_GUST BOM_GUST_PER REUNION_GUST REUNION_GUST_PER USA_SEAHGT USA_SEARAD_NE USA_SEARAD_SE USA_SEARAD_SW USA_SEARAD_NW STORM_SPEED STORM_DIR
1995336S10106 1996 93 SI WA EMMA 1995-12-01 22:00:00 NR -10.0000 105.900 20 1005 bom spur-merge 296 296 ______O_______ -1 -10.0000 105.900 20 20 1005 1.00000 134 3 5 8 272
1995336S10106 1996 93 SI WA EMMA 1995-12-02 00:00:00 NR -9.99014 105.633 spur-merge 304 304 ______P_______ -1 -9.99014 105.633 20 20 1005 134 8 270
1995336S10106 1996 93 SI WA EMMA 1995-12-02 01:00:00 NR -10.0000 105.500 20 1005 bom spur-merge 307 307 ______O_______ -1 -10.0000 105.500 20 20 1005 1.00000 134 3 5 8 260
1995336S10106 1996 93 SI WA EMMA 1995-12-02 03:00:00 NR -10.0612 105.233 spur-merge 330 330 ______P_______ -1 -10.0612 105.233 20 20 1005 134 8 256
1995336S10106 1996 93 SI WA EMMA 1995-12-02 04:00:00 NR -10.1000 105.100 20 1005 bom spur-merge 334 334 ______O_______ -1 -10.1000 105.100 20 20 1005 1.00000 134 3 5 8 256
1995336S10106 1996 93 SI WA EMMA 1995-12-02 06:00:00 NR -10.1588 104.833 spur-merge 359 359 ______P_______ -1 -10.1588 104.833 20 20 1005 134 8 256
1995336S10106 1996 93 SI WA EMMA 1995-12-02 07:00:00 NR -10.2000 104.700 20 1005 bom spur-merge 365 365 ______O_______ -1 -10.2000 104.700 20 20 1005 1.00000 134 3 5 9 247
1995336S10106 1996 93 SI WA EMMA 1995-12-02 09:00:00 NR -10.3279 104.433 spur-merge 392 392 ______P_______ -1 -10.3279 104.433 20 20 1005 134 9 243
1995336S10106 1996 93 SI WA EMMA 1995-12-02 10:00:00 NR -10.4000 104.300 20 1005 bom spur-merge 407 407 ______O_______ -1 -10.4000 104.300 20 20 1005 1.00000 134 3 5 9 242
1995336S10106 1996 93 SI WA EMMA 1995-12-02 12:00:00 NR -10.5333 104.033 spur-merge 435 435 ______P_______ -1 -10.5333 104.033 20 20 1005 134 9 243
1995336S10106 1996 93 SI WA EMMA 1995-12-02 13:00:00 NR -10.6000 103.900 20 1005 bom spur-merge 449 449 ______O_______ -1 -10.6000 103.900 20 20 1005 1.00000 134 3 5 9 243
1995336S10106 1996 93 SI WA EMMA 1995-12-02 15:00:00 NR -10.7333 103.633 spur-merge 471 471 ______P_______ -1 -10.7333 103.633 20 20 1005 134 9 243
1995336S10106 1996 93 SI WA EMMA 1995-12-02 16:00:00 NR -10.8000 103.500 20 1005 bom spur-merge 485 485 ______O_______ -1 -10.8000 103.500 20 20 1005 1.00000 134 3 5 9 243
1995336S10106 1996 93 SI WA EMMA 1995-12-02 18:00:00 NR -10.9333 103.233 spur-merge 509 509 ______P_______ -1 -10.9333 103.233 20 20 1005 134 9 243
1995336S10106 1996 93 SI WA EMMA 1995-12-02 19:00:00 NR -11.0000 103.100 20 1005 bom spur-merge 524 524 ______O_______ -1 -11.0000 103.100 20 20 1005 1.00000 134 3 5 9 243
1995336S10106 1996 93 SI WA EMMA 1995-12-02 21:00:00 NR -11.1333 102.833 spur-merge 549 549 ______P_______ -1 -11.1333 102.833 20 20 1005 134 9 243
1995336S10106 1996 93 SI WA EMMA 1995-12-02 22:00:00 NR -11.2000 102.700 20 1005 bom spur-merge 564 564 ______O_______ -1 -11.2000 102.700 20 20 1005 1.00000 134 3 5 9 243
1995336S10106 1996 93 SI WA EMMA 1995-12-03 00:00:00 NR -11.3333 102.433 spur-merge 590 590 ______P_______ -1 -11.3333 102.433 20 20 1003 134 9 243
1995336S10106 1996 93 SI WA EMMA 1995-12-03 01:00:00 NR -11.4000 102.300 20 1003 bom spur-merge 605 605 ______O_______ -1 -11.4000 102.300 20 20 1003 1.50000 134 3 5 9 243
1995336S10106 1996 93 SI WA EMMA 1995-12-03 03:00:00 NR -11.5333 102.033 spur-merge 633 633 ______P_______ -1 -11.5333 102.033 20 20 1003 134 9 243
1995336S10106 1996 93 SI WA EMMA 1995-12-03 04:00:00 NR -11.6000 101.900 20 1003 bom spur-merge 648 648 ______O_______ -1 -11.6000 101.900 20 20 1003 1.50000 134 3 5 9 242
1995336S10106 1996 93 SI WA EMMA 1995-12-03 06:00:00 NR -11.7412 101.641 spur-merge 676 676 ______P_______ -1 -11.7412 101.641 20 20 1003 134 9 243
1995336S10106 1996 93 SI WA EMMA 1995-12-03 07:00:00 NR -11.8000 101.500 20 1003 bom spur-merge 691 691 ______O_______ -1 -11.8000 101.500 20 20 1003 1.50000 134 3 5 10 253
1995336S10106 1996 93 SI WA EMMA 1995-12-03 09:00:00 NR -11.8800 101.172 spur-merge 720 720 ______P_______ -1 -11.8746 101.175 20 20 1003 134 10 258
1995336S10106 1996 93 SI WA EMMA 1995-12-03 10:00:00 NR -11.9000 101.000 20 1003 bom spur-merge 734 ______O_______ -1 -11.9000 101.000 20 20 1003 1.50000 134 3 5 10 263

IBTrACS Databaseについて

本データベースは、米国NOAAが公開する1842年以降の世界の熱帯低気圧のベストトラックデータアーカイブInternational Best Track Archive for Climate Stewardship (IBTrACS)を、ウェブで閲覧しやすい形式に変換したものです。

最終更新日:2021-10-08